Terminal Aerodrome Forecast
Issued by NWS Nashville, TN

Home | Current Version | Previous Version | Text Only | Print | Product List | Glossary On
Versions: 1 2 3 4 5 6 7 8 9 10 11 12 13 14 15 16 17 18 19 20 21 22 23 24 25
000
FTUS44 KOHX 180900 AAA
TAFBNA
TAF AMD
KBNA 180940Z 1810/1906 04004KT P6SM BKN090
     FM181600 04007KT P6SM SCT060 BKN250
     FM190100 03004KT P6SM SKC=

USA.gov is the U.S. government's official web portal to all federal, state and local government web resources and services.